sensor_id;sensor_type;location;lat;lon;timestamp;P1;durP1;ratioP1;P2;durP2;ratioP2
10142;SDS011;5112;54.088;13.446;2022-07-25T00:00:16;3.63;;;3.33;;
10142;SDS011;5112;54.088;13.446;2022-07-25T00:10:19;4.23;;;3.20;;
10142;SDS011;5112;54.088;13.446;2022-07-25T00:20:21;4.30;;;3.20;;
10142;SDS011;5112;54.088;13.446;2022-07-25T00:30:24;3.27;;;2.70;;
10142;SDS011;5112;54.088;13.446;2022-07-25T00:40:26;3.20;;;2.90;;
10142;SDS011;5112;54.088;13.446;2022-07-25T00:50:29;2.93;;;2.73;;
10142;SDS011;5112;54.088;13.446;2022-07-25T01:00:31;3.20;;;2.90;;
10142;SDS011;5112;54.088;13.446;2022-07-25T01:10:35;3.17;;;2.90;;
10142;SDS011;5112;54.088;13.446;2022-07-25T01:20:39;3.20;;;2.90;;
10142;SDS011;5112;54.088;13.446;2022-07-25T01:30:40;3.23;;;2.93;;
10142;SDS011;5112;54.088;13.446;2022-07-25T01:40:43;3.60;;;2.60;;
10142;SDS011;5112;54.088;13.446;2022-07-25T01:50:45;3.47;;;2.47;;
10142;SDS011;5112;54.088;13.446;2022-07-25T02:00:49;3.83;;;2.80;;
10142;SDS011;5112;54.088;13.446;2022-07-25T02:10:50;5.33;;;2.97;;
10142;SDS011;5112;54.088;13.446;2022-07-25T02:20:54;3.20;;;2.90;;
10142;SDS011;5112;54.088;13.446;2022-07-25T02:30:55;3.63;;;2.90;;
10142;SDS011;5112;54.088;13.446;2022-07-25T02:40:58;3.20;;;3.00;;
10142;SDS011;5112;54.088;13.446;2022-07-25T02:51:00;2.60;;;2.40;;
10142;SDS011;5112;54.088;13.446;2022-07-25T03:01:03;3.17;;;2.67;;
10142;SDS011;5112;54.088;13.446;2022-07-25T03:11:05;3.30;;;3.00;;
10142;SDS011;5112;54.088;13.446;2022-07-25T03:21:09;2.67;;;2.47;;
10142;SDS011;5112;54.088;13.446;2022-07-25T03:31:13;2.83;;;2.63;;
10142;SDS011;5112;54.088;13.446;2022-07-25T03:41:16;3.17;;;2.60;;
10142;SDS011;5112;54.088;13.446;2022-07-25T03:51:17;2.70;;;2.40;;
10142;SDS011;5112;54.088;13.446;2022-07-25T04:01:22;3.70;;;2.30;;
10142;SDS011;5112;54.088;13.446;2022-07-25T04:11:24;3.93;;;2.57;;
10142;SDS011;5112;54.088;13.446;2022-07-25T04:21:28;2.50;;;2.30;;
10142;SDS011;5112;54.088;13.446;2022-07-25T04:31:30;3.97;;;2.37;;
10142;SDS011;5112;54.088;13.446;2022-07-25T04:41:35;2.40;;;2.30;;
10142;SDS011;5112;54.088;13.446;2022-07-25T04:51:37;1.93;;;1.83;;
10142;SDS011;5112;54.088;13.446;2022-07-25T05:01:40;2.63;;;2.43;;
10142;SDS011;5112;54.088;13.446;2022-07-25T05:11:42;2.50;;;2.30;;
10142;SDS011;5112;54.088;13.446;2022-07-25T05:21:45;2.70;;;2.27;;
10142;SDS011;5112;54.088;13.446;2022-07-25T05:31:46;3.43;;;2.00;;
10142;SDS011;5112;54.088;13.446;2022-07-25T05:41:49;2.03;;;1.90;;
10142;SDS011;5112;54.088;13.446;2022-07-25T05:51:52;2.07;;;1.90;;
10142;SDS011;5112;54.088;13.446;2022-07-25T06:01:57;4.43;;;2.30;;
10142;SDS011;5112;54.088;13.446;2022-07-25T06:12:00;2.10;;;2.00;;
10142;SDS011;5112;54.088;13.446;2022-07-25T06:22:04;3.03;;;2.10;;
10142;SDS011;5112;54.088;13.446;2022-07-25T06:32:07;2.30;;;1.70;;
10142;SDS011;5112;54.088;13.446;2022-07-25T06:42:10;2.00;;;1.90;;
10142;SDS011;5112;54.088;13.446;2022-07-25T06:52:11;2.30;;;2.10;;
10142;SDS011;5112;54.088;13.446;2022-07-25T07:02:16;2.53;;;1.93;;
10142;SDS011;5112;54.088;13.446;2022-07-25T07:12:17;4.43;;;1.87;;
10142;SDS011;5112;54.088;13.446;2022-07-25T07:22:21;2.83;;;1.93;;
10142;SDS011;5112;54.088;13.446;2022-07-25T07:32:23;2.10;;;1.90;;
10142;SDS011;5112;54.088;13.446;2022-07-25T07:42:26;2.27;;;2.07;;
10142;SDS011;5112;54.088;13.446;2022-07-25T07:52:28;5.10;;;1.93;;
10142;SDS011;5112;54.088;13.446;2022-07-25T08:02:31;4.23;;;2.40;;
10142;SDS011;5112;54.088;13.446;2022-07-25T08:12:35;3.10;;;2.40;;
10142;SDS011;5112;54.088;13.446;2022-07-25T08:22:42;2.43;;;2.33;;
10142;SDS011;5112;54.088;13.446;2022-07-25T08:32:46;3.30;;;3.00;;
10142;SDS011;5112;54.088;13.446;2022-07-25T08:42:51;3.20;;;3.00;;
10142;SDS011;5112;54.088;13.446;2022-07-25T08:52:54;4.17;;;3.07;;
10142;SDS011;5112;54.088;13.446;2022-07-25T09:02:58;3.83;;;3.23;;
10142;SDS011;5112;54.088;13.446;2022-07-25T09:13:01;3.63;;;3.30;;
10142;SDS011;5112;54.088;13.446;2022-07-25T09:23:08;4.50;;;3.73;;
10142;SDS011;5112;54.088;13.446;2022-07-25T09:33:10;3.60;;;3.40;;
10142;SDS011;5112;54.088;13.446;2022-07-25T09:43:13;4.03;;;3.70;;
10142;SDS011;5112;54.088;13.446;2022-07-25T09:53:15;5.13;;;4.70;;
10142;SDS011;5112;54.088;13.446;2022-07-25T10:03:22;4.50;;;4.20;;
10142;SDS011;5112;54.088;13.446;2022-07-25T10:13:30;7.27;;;4.27;;
10142;SDS011;5112;54.088;13.446;2022-07-25T10:23:35;4.93;;;4.50;;
10142;SDS011;5112;54.088;13.446;2022-07-25T10:33:39;5.97;;;4.57;;
10142;SDS011;5112;54.088;13.446;2022-07-25T10:43:44;6.00;;;5.03;;
10142;SDS011;5112;54.088;13.446;2022-07-25T10:53:47;6.00;;;5.40;;
10142;SDS011;5112;54.088;13.446;2022-07-25T11:03:53;5.80;;;5.40;;
10142;SDS011;5112;54.088;13.446;2022-07-25T11:13:56;6.17;;;5.77;;
10142;SDS011;5112;54.088;13.446;2022-07-25T11:23:59;8.17;;;5.80;;
10142;SDS011;5112;54.088;13.446;2022-07-25T11:34:01;6.43;;;5.90;;
10142;SDS011;5112;54.088;13.446;2022-07-25T11:44:04;7.50;;;6.57;;
10142;SDS011;5112;54.088;13.446;2022-07-25T11:54:07;7.40;;;6.67;;
10142;SDS011;5112;54.088;13.446;2022-07-25T12:04:12;7.77;;;7.07;;
10142;SDS011;5112;54.088;13.446;2022-07-25T12:14:16;7.27;;;6.77;;
10142;SDS011;5112;54.088;13.446;2022-07-25T12:24:19;7.20;;;6.60;;
10142;SDS011;5112;54.088;13.446;2022-07-25T12:34:20;6.87;;;6.37;;
10142;SDS011;5112;54.088;13.446;2022-07-25T12:44:23;8.20;;;7.60;;
10142;SDS011;5112;54.088;13.446;2022-07-25T12:54:25;8.43;;;7.67;;
10142;SDS011;5112;54.088;13.446;2022-07-25T13:04:28;7.30;;;6.80;;
10142;SDS011;5112;54.088;13.446;2022-07-25T13:14:30;8.53;;;7.83;;
10142;SDS011;5112;54.088;13.446;2022-07-25T13:24:33;8.30;;;7.70;;
10142;SDS011;5112;54.088;13.446;2022-07-25T13:34:35;8.03;;;7.43;;
10142;SDS011;5112;54.088;13.446;2022-07-25T13:44:38;8.53;;;7.87;;
10142;SDS011;5112;54.088;13.446;2022-07-25T13:54:39;8.50;;;7.90;;
10142;SDS011;5112;54.088;13.446;2022-07-25T14:04:42;8.60;;;7.90;;
10142;SDS011;5112;54.088;13.446;2022-07-25T14:14:45;8.97;;;8.17;;
10142;SDS011;5112;54.088;13.446;2022-07-25T14:24:48;9.57;;;8.77;;
10142;SDS011;5112;54.088;13.446;2022-07-25T14:34:50;9.00;;;8.23;;
10142;SDS011;5112;54.088;13.446;2022-07-25T14:44:54;10.63;;;8.13;;
10142;SDS011;5112;54.088;13.446;2022-07-25T14:54:55;9.50;;;8.70;;
10142;SDS011;5112;54.088;13.446;2022-07-25T15:04:58;9.13;;;8.53;;
10142;SDS011;5112;54.088;13.446;2022-07-25T15:15:00;8.90;;;8.30;;
10142;SDS011;5112;54.088;13.446;2022-07-25T15:25:04;9.30;;;8.60;;
10142;SDS011;5112;54.088;13.446;2022-07-25T15:35:07;11.43;;;8.87;;
10142;SDS011;5112;54.088;13.446;2022-07-25T15:45:10;9.63;;;8.67;;
10142;SDS011;5112;54.088;13.446;2022-07-25T15:55:12;9.37;;;8.67;;
10142;SDS011;5112;54.088;13.446;2022-07-25T16:05:15;8.70;;;7.90;;
10142;SDS011;5112;54.088;13.446;2022-07-25T16:15:17;18.17;;;8.23;;
10142;SDS011;5112;54.088;13.446;2022-07-25T16:25:20;13.17;;;8.03;;
10142;SDS011;5112;54.088;13.446;2022-07-25T16:35:22;10.77;;;9.37;;
10142;SDS011;5112;54.088;13.446;2022-07-25T16:45:25;14.07;;;11.43;;
10142;SDS011;5112;54.088;13.446;2022-07-25T16:55:27;11.80;;;10.60;;
10142;SDS011;5112;54.088;13.446;2022-07-25T17:05:31;13.77;;;10.40;;
10142;SDS011;5112;54.088;13.446;2022-07-25T17:15:33;10.83;;;9.63;;
10142;SDS011;5112;54.088;13.446;2022-07-25T17:25:36;11.60;;;10.40;;
10142;SDS011;5112;54.088;13.446;2022-07-25T17:35:39;12.30;;;11.10;;
10142;SDS011;5112;54.088;13.446;2022-07-25T17:45:42;11.33;;;10.23;;
10142;SDS011;5112;54.088;13.446;2022-07-25T17:55:45;10.43;;;9.60;;
10142;SDS011;5112;54.088;13.446;2022-07-25T18:05:48;11.97;;;10.93;;
10142;SDS011;5112;54.088;13.446;2022-07-25T18:15:50;10.20;;;9.30;;
10142;SDS011;5112;54.088;13.446;2022-07-25T18:25:54;12.77;;;11.57;;
10142;SDS011;5112;54.088;13.446;2022-07-25T18:35:56;12.87;;;11.67;;
10142;SDS011;5112;54.088;13.446;2022-07-25T18:45:59;13.13;;;11.93;;
10142;SDS011;5112;54.088;13.446;2022-07-25T18:56:01;18.20;;;15.03;;
10142;SDS011;5112;54.088;13.446;2022-07-25T19:06:07;16.43;;;14.83;;
10142;SDS011;5112;54.088;13.446;2022-07-25T19:16:09;19.53;;;17.93;;
10142;SDS011;5112;54.088;13.446;2022-07-25T19:26:12;20.52;;;18.75;;
10142;SDS011;5112;54.088;13.446;2022-07-25T19:36:14;19.87;;;17.97;;
10142;SDS011;5112;54.088;13.446;2022-07-25T19:46:18;18.80;;;17.20;;
10142;SDS011;5112;54.088;13.446;2022-07-25T19:56:19;20.77;;;18.97;;
10142;SDS011;5112;54.088;13.446;2022-07-25T20:06:22;18.70;;;16.83;;
10142;SDS011;5112;54.088;13.446;2022-07-25T20:16:24;18.80;;;16.90;;
10142;SDS011;5112;54.088;13.446;2022-07-25T20:26:27;18.63;;;17.03;;
10142;SDS011;5112;54.088;13.446;2022-07-25T20:36:29;16.27;;;14.67;;
10142;SDS011;5112;54.088;13.446;2022-07-25T20:46:33;17.00;;;15.40;;
10142;SDS011;5112;54.088;13.446;2022-07-25T20:56:35;16.17;;;14.67;;
10142;SDS011;5112;54.088;13.446;2022-07-25T21:06:38;16.00;;;14.40;;
10142;SDS011;5112;54.088;13.446;2022-07-25T21:16:40;17.40;;;12.87;;
10142;SDS011;5112;54.088;13.446;2022-07-25T21:26:43;12.90;;;11.53;;
10142;SDS011;5112;54.088;13.446;2022-07-25T21:36:45;11.50;;;10.37;;
10142;SDS011;5112;54.088;13.446;2022-07-25T21:46:48;11.37;;;9.87;;
10142;SDS011;5112;54.088;13.446;2022-07-25T21:56:50;10.93;;;9.10;;
10142;SDS011;5112;54.088;13.446;2022-07-25T22:06:53;8.83;;;7.87;;
10142;SDS011;5112;54.088;13.446;2022-07-25T22:16:55;9.80;;;8.00;;
10142;SDS011;5112;54.088;13.446;2022-07-25T22:26:58;8.90;;;8.00;;
10142;SDS011;5112;54.088;13.446;2022-07-25T22:37:00;8.83;;;7.77;;
10142;SDS011;5112;54.088;13.446;2022-07-25T22:47:03;11.67;;;9.20;;
10142;SDS011;5112;54.088;13.446;2022-07-25T22:57:05;14.27;;;11.27;;
10142;SDS011;5112;54.088;13.446;2022-07-25T23:07:08;13.13;;;11.83;;
10142;SDS011;5112;54.088;13.446;2022-07-25T23:17:10;14.23;;;10.33;;
10142;SDS011;5112;54.088;13.446;2022-07-25T23:27:20;12.47;;;11.00;;
10142;SDS011;5112;54.088;13.446;2022-07-25T23:37:22;11.27;;;10.10;;
10142;SDS011;5112;54.088;13.446;2022-07-25T23:47:25;10.93;;;8.53;;
10142;SDS011;5112;54.088;13.446;2022-07-25T23:57:27;14.03;;;9.43;;
